createdAt,value
2023-03-07T00:00:38.514Z,74.80
2023-03-07T00:03:06.939Z,70.93
2023-03-07T00:05:35.364Z,71.35
2023-03-07T00:08:05.436Z,66.43
2023-03-07T00:10:33.772Z,80.20
2023-03-07T00:13:02.294Z,71.63
2023-03-07T00:15:30.624Z,71.28
2023-03-07T00:17:59.002Z,67.55
2023-03-07T00:20:27.392Z,58.20
2023-03-07T00:22:55.794Z,58.67
2023-03-07T00:25:25.512Z,63.13
2023-03-07T00:27:53.910Z,55.95
2023-03-07T00:30:22.480Z,54.58
2023-03-07T00:32:50.958Z,55.28
2023-03-07T00:35:19.668Z,50.80
2023-03-07T00:37:48.035Z,48.17
2023-03-07T00:40:16.962Z,52.75
2023-03-07T00:42:46.721Z,48.95
2023-03-07T00:45:15.183Z,51.10
2023-03-07T00:47:43.499Z,48.35
2023-03-07T00:50:13.269Z,49.15
2023-03-07T00:52:41.544Z,51.22
2023-03-07T00:55:11.060Z,48.30
2023-03-07T00:57:40.501Z,50.78
2023-03-07T01:00:12.391Z,55.53
2023-03-07T01:02:40.610Z,50.95
2023-03-07T01:05:09.445Z,44.53
2023-03-07T01:07:37.986Z,47.45
2023-03-07T01:10:07.724Z,43.58
2023-03-07T01:12:36.545Z,47.40
2023-03-07T01:15:06.578Z,51.85
2023-03-07T01:17:36.626Z,41.33
2023-03-07T01:20:07.185Z,48.15
2023-03-07T01:22:36.896Z,38.72
2023-03-07T01:25:08.210Z,49.00
2023-03-07T01:27:37.206Z,49.58
2023-03-07T01:30:06.694Z,51.60
2023-03-07T01:32:37.773Z,42.00
2023-03-07T01:35:07.138Z,52.00
2023-03-07T01:37:35.662Z,49.83
2023-03-07T01:40:06.751Z,40.22
2023-03-07T01:42:35.037Z,42.53
2023-03-07T01:45:07.420Z,50.25
2023-03-07T01:47:46.468Z,41.53
2023-03-07T01:50:18.356Z,42.17
2023-03-07T01:52:50.930Z,44.67
2023-03-07T01:55:21.680Z,40.17
2023-03-07T01:57:55.609Z,43.10
2023-03-07T02:00:29.957Z,45.22
2023-03-07T02:03:07.820Z,36.25
2023-03-07T02:05:42.039Z,41.45
2023-03-07T02:08:12.969Z,43.55
2023-03-07T02:10:42.693Z,46.25
2023-03-07T02:13:11.685Z,37.92
2023-03-07T02:15:41.209Z,35.08
2023-03-07T02:18:14.258Z,39.83
2023-03-07T02:20:49.874Z,39.42
2023-03-07T02:23:25.131Z,41.88
2023-03-07T02:26:02.590Z,36.05
2023-03-07T02:28:32.837Z,40.08
2023-03-07T02:31:08.173Z,38.35
2023-03-07T02:33:38.714Z,42.00
2023-03-07T02:36:14.229Z,42.83
2023-03-07T02:38:51.936Z,39.40
2023-03-07T02:41:26.343Z,38.15
2023-03-07T02:43:56.236Z,42.42
2023-03-07T02:46:24.871Z,41.17
2023-03-07T02:48:53.207Z,35.83
2023-03-07T02:51:21.783Z,35.28
2023-03-07T02:53:50.263Z,39.05
2023-03-07T02:56:19.066Z,43.42
2023-03-07T02:58:47.432Z,38.40
2023-03-07T03:01:17.522Z,34.72
2023-03-07T03:03:45.839Z,43.90
2023-03-07T03:06:15.869Z,46.67
2023-03-07T03:08:44.228Z,47.80
2023-03-07T03:11:12.717Z,41.75
2023-03-07T03:13:41.619Z,47.78
2023-03-07T03:16:10.171Z,51.90
2023-03-07T03:18:40.074Z,47.80
2023-03-07T03:21:12.023Z,48.47
2023-03-07T03:23:40.898Z,53.95
2023-03-07T03:26:11.711Z,54.13
2023-03-07T03:28:41.230Z,58.38
2023-03-07T03:31:11.878Z,56.47
2023-03-07T03:33:44.058Z,60.28
2023-03-07T03:36:14.373Z,54.92
2023-03-07T03:38:43.699Z,70.07
2023-03-07T03:41:15.910Z,66.28
2023-03-07T03:43:45.079Z,61.28
2023-03-07T03:46:13.742Z,68.93
2023-03-07T03:48:43.641Z,68.03
2023-03-07T03:51:14.553Z,69.10
2023-03-07T03:53:43.010Z,70.78
2023-03-07T03:56:13.113Z,90.38
2023-03-07T03:58:43.425Z,82.25
2023-03-07T04:01:14.175Z,78.95
2023-03-07T04:03:45.738Z,72.00
2023-03-07T04:06:16.454Z,86.45
2023-03-07T04:08:46.449Z,93.68
2023-03-07T04:11:15.383Z,76.25
2023-03-07T04:13:44.273Z,92.80
2023-03-07T04:16:13.265Z,83.63
2023-03-07T04:18:43.151Z,95.55
2023-03-07T04:21:13.029Z,83.65
2023-03-07T04:23:42.616Z,84.40
2023-03-07T04:26:12.157Z,83.30
2023-03-07T04:28:46.044Z,81.93
2023-03-07T04:31:20.385Z,80.35
2023-03-07T04:33:50.953Z,69.05
2023-03-07T04:36:20.304Z,70.47
2023-03-07T04:38:50.282Z,71.85
2023-03-07T04:41:21.942Z,72.30
2023-03-07T04:43:53.583Z,78.03
2023-03-07T04:46:24.031Z,78.82
2023-03-07T04:48:54.116Z,81.53
2023-03-07T04:51:22.963Z,72.65
2023-03-07T04:53:51.865Z,75.82
2023-03-07T04:56:20.528Z,65.15
2023-03-07T04:58:49.404Z,75.13
2023-03-07T05:01:20.335Z,64.65
2023-03-07T05:03:49.922Z,65.47
2023-03-07T05:06:22.081Z,84.35
2023-03-07T05:08:52.552Z,77.07
2023-03-07T05:11:21.209Z,75.80
2023-03-07T05:13:50.852Z,77.38
2023-03-07T05:16:21.846Z,62.58
2023-03-07T05:18:50.556Z,61.03
2023-03-07T05:21:19.522Z,66.53
2023-03-07T05:23:51.607Z,66.10
2023-03-07T05:26:20.276Z,68.07
2023-03-07T05:28:49.581Z,57.00
2023-03-07T05:31:18.622Z,61.00
2023-03-07T05:33:47.684Z,70.82
2023-03-07T05:36:16.882Z,67.38
2023-03-07T05:38:45.176Z,66.47
2023-03-07T05:41:14.989Z,67.60
2023-03-07T05:43:45.189Z,76.95
2023-03-07T05:46:13.638Z,82.10
2023-03-07T05:48:45.257Z,69.13
2023-03-07T05:51:13.991Z,69.03
2023-03-07T05:53:43.237Z,64.70
2023-03-07T05:56:11.650Z,69.53
2023-03-07T05:58:41.813Z,72.70
2023-03-07T06:01:10.907Z,78.95
2023-03-07T06:03:39.311Z,69.10
2023-03-07T06:06:08.436Z,68.03
2023-03-07T06:08:36.838Z,78.18
2023-03-07T06:11:05.464Z,93.90
2023-03-07T06:13:36.868Z,83.88
2023-03-07T06:16:07.152Z,92.60
2023-03-07T06:18:36.206Z,116.43
2023-03-07T06:21:06.534Z,102.75
2023-03-07T06:23:40.114Z,105.65
2023-03-07T06:26:13.545Z,114.07
2023-03-07T06:28:44.082Z,118.72
2023-03-07T06:31:17.935Z,100.85
2023-03-07T06:33:47.753Z,109.25
2023-03-07T06:36:19.552Z,93.95
2023-03-07T06:38:51.867Z,97.75
2023-03-07T06:41:21.560Z,104.82
2023-03-07T06:43:52.987Z,104.95
2023-03-07T06:46:28.354Z,92.10
2023-03-07T06:48:57.635Z,97.20
2023-03-07T06:51:26.837Z,83.85
2023-03-07T06:53:58.102Z,90.88
2023-03-07T06:56:29.847Z,85.95
2023-03-07T06:58:58.940Z,90.18
2023-03-07T07:01:29.109Z,85.20
2023-03-07T07:03:59.364Z,76.18
2023-03-07T07:06:29.253Z,85.57
2023-03-07T07:08:58.547Z,89.28
2023-03-07T07:11:31.026Z,82.70
2023-03-07T07:14:00.957Z,84.88
2023-03-07T07:16:33.705Z,82.20
2023-03-07T07:19:02.506Z,88.38
2023-03-07T07:21:30.848Z,99.25
2023-03-07T07:24:01.809Z,94.70
2023-03-07T07:26:30.640Z,88.68
2023-03-07T07:29:00.819Z,80.90
2023-03-07T07:31:31.127Z,87.72
2023-03-07T07:34:02.025Z,82.40
2023-03-07T07:36:34.409Z,92.20
2023-03-07T07:39:05.248Z,80.35
2023-03-07T07:41:35.485Z,92.07
2023-03-07T07:44:04.266Z,87.10
2023-03-07T07:46:54.490Z,86.82
2023-03-07T07:49:23.048Z,81.45
2023-03-07T07:51:52.010Z,86.00
2023-03-07T07:54:20.635Z,81.60
2023-03-07T07:56:50.578Z,80.55
2023-03-07T07:59:19.796Z,89.95
2023-03-07T08:01:48.665Z,80.68
2023-03-07T08:04:18.595Z,88.38
2023-03-07T08:06:47.022Z,83.63
2023-03-07T08:09:15.921Z,87.13
2023-03-07T08:11:44.298Z,74.35
2023-03-07T08:14:14.219Z,76.38
2023-03-07T08:16:42.559Z,74.22
2023-03-07T08:19:11.252Z,74.57
2023-03-07T08:21:41.155Z,75.68
2023-03-07T08:24:09.647Z,76.22
2023-03-07T08:26:38.064Z,67.18
2023-03-07T08:29:06.470Z,70.13
2023-03-07T08:31:34.875Z,67.57
2023-03-07T08:34:03.261Z,73.20
2023-03-07T08:36:31.685Z,63.15
2023-03-07T08:39:01.393Z,65.90
2023-03-07T08:41:29.843Z,64.20
2023-03-07T08:43:58.146Z,58.83
2023-03-07T08:46:26.582Z,61.80
2023-03-07T08:48:54.905Z,54.05
2023-03-07T08:51:23.270Z,57.17
2023-03-07T08:53:51.677Z,54.25
2023-03-07T08:56:22.086Z,54.20
2023-03-07T08:58:53.795Z,54.88
2023-03-07T09:01:22.321Z,55.25
2023-03-07T09:03:50.861Z,58.33
2023-03-07T09:06:21.207Z,56.60
2023-03-07T09:08:50.381Z,59.67
2023-03-07T09:11:21.740Z,62.15
2023-03-07T09:13:52.713Z,57.53
2023-03-07T09:16:22.198Z,52.28
2023-03-07T09:18:50.503Z,53.33
2023-03-07T09:21:18.823Z,57.80
2023-03-07T09:23:47.269Z,52.80
2023-03-07T09:26:15.797Z,50.03
2023-03-07T09:28:45.495Z,50.63
2023-03-07T09:31:18.579Z,49.42
2023-03-07T09:33:47.314Z,51.08
2023-03-07T09:36:18.103Z,49.40
2023-03-07T09:38:48.091Z,53.50
2023-03-07T09:41:36.799Z,53.00
2023-03-07T09:44:18.149Z,50.92
2023-03-07T09:47:28.254Z,55.58
2023-03-07T09:49:57.216Z,53.15
2023-03-07T09:52:32.460Z,48.00
2023-03-07T09:55:05.019Z,49.03
2023-03-07T09:57:35.406Z,51.20
2023-03-07T10:00:18.711Z,49.95
2023-03-07T10:02:51.284Z,42.47
2023-03-07T10:05:31.577Z,50.20
2023-03-07T10:08:02.289Z,50.67
2023-03-07T10:10:38.412Z,47.22
2023-03-07T10:13:20.195Z,43.72
2023-03-07T10:15:55.452Z,44.45
2023-03-07T10:18:35.799Z,46.97
2023-03-07T10:21:12.608Z,45.58
2023-03-07T10:24:13.872Z,50.83
2023-03-07T10:26:51.778Z,56.20
2023-03-07T10:29:24.315Z,52.95
2023-03-07T10:31:58.043Z,55.95
2023-03-07T10:34:31.339Z,63.80
2023-03-07T10:37:09.022Z,48.92
2023-03-07T10:39:44.837Z,48.00
2023-03-07T10:42:15.170Z,52.10
2023-03-07T10:44:46.205Z,63.85
2023-03-07T10:47:21.700Z,51.13
2023-03-07T10:49:52.517Z,47.25
2023-03-07T10:52:31.854Z,52.83
2023-03-07T10:55:33.622Z,51.65
2023-03-07T10:58:20.913Z,50.13
2023-03-07T11:01:04.102Z,53.13
2023-03-07T11:03:52.508Z,50.58
2023-03-07T11:06:34.602Z,57.30
2023-03-07T11:09:20.608Z,52.03
2023-03-07T11:12:12.959Z,59.45
2023-03-07T11:14:49.352Z,55.30
2023-03-07T11:17:24.884Z,53.85
2023-03-07T11:19:56.601Z,54.55
2023-03-07T11:22:28.974Z,59.35
2023-03-07T11:25:04.614Z,55.47
2023-03-07T11:27:40.144Z,55.80
2023-03-07T11:30:20.064Z,52.60
2023-03-07T11:33:03.366Z,50.53
2023-03-07T11:35:50.812Z,58.75
2023-03-07T11:38:31.776Z,49.72
2023-03-07T11:41:07.174Z,50.95
2023-03-07T11:43:49.041Z,42.38
2023-03-07T11:46:28.320Z,48.63
2023-03-07T11:49:08.380Z,52.00
2023-03-07T11:52:14.286Z,52.05
2023-03-07T11:54:49.764Z,52.03
2023-03-07T11:57:31.812Z,56.17
2023-03-07T12:00:21.152Z,53.80
2023-03-07T12:03:02.327Z,56.90
2023-03-07T12:05:39.525Z,49.35
2023-03-07T12:08:47.415Z,47.80
2023-03-07T12:11:29.604Z,48.03
2023-03-07T12:14:04.200Z,46.90
2023-03-07T12:16:42.576Z,46.50
2023-03-07T12:19:32.950Z,44.30
2023-03-07T12:22:25.226Z,49.05
2023-03-07T12:25:09.865Z,40.95
2023-03-07T12:27:43.163Z,41.83
2023-03-07T12:30:18.216Z,52.70
2023-03-07T12:32:47.260Z,51.25
2023-03-07T12:35:24.628Z,41.83
2023-03-07T12:38:02.085Z,41.45
2023-03-07T12:40:42.178Z,34.58
2023-03-07T12:43:19.679Z,42.00
2023-03-07T12:45:51.748Z,40.00
2023-03-07T12:48:25.809Z,36.45
2023-03-07T12:51:01.485Z,37.75
2023-03-07T12:53:36.984Z,36.03
2023-03-07T12:56:16.452Z,38.55
2023-03-07T12:58:50.197Z,38.80
2023-03-07T13:01:22.678Z,33.58
2023-03-07T13:03:58.044Z,34.00
2023-03-07T13:06:27.766Z,34.97
2023-03-07T13:08:59.794Z,38.60
2023-03-07T13:11:33.868Z,40.90
2023-03-07T13:14:02.815Z,40.15
2023-03-07T13:16:49.381Z,34.63
2023-03-07T13:19:43.770Z,35.95
2023-03-07T13:22:49.448Z,31.17
2023-03-07T13:25:51.902Z,37.33
2023-03-07T13:28:39.822Z,34.65
2023-03-07T13:31:31.279Z,37.47
2023-03-07T13:34:41.499Z,36.70
2023-03-07T13:37:52.095Z,30.73
2023-03-07T13:40:30.533Z,31.20
2023-03-07T13:42:59.223Z,37.67
2023-03-07T13:45:53.048Z,37.42
2023-03-07T13:48:59.847Z,29.35
2023-03-07T13:51:29.953Z,32.42
2023-03-07T13:54:03.023Z,31.52
2023-03-07T13:56:36.352Z,37.03
2023-03-07T13:59:15.738Z,29.17
2023-03-07T14:01:50.198Z,29.90
2023-03-07T14:04:38.337Z,31.45
2023-03-07T14:07:16.546Z,29.83
2023-03-07T14:09:48.074Z,33.38
2023-03-07T14:12:24.906Z,28.35
2023-03-07T14:15:18.444Z,28.23
2023-03-07T14:18:03.617Z,30.17
2023-03-07T14:20:48.481Z,28.17
2023-03-07T14:23:30.134Z,31.30
2023-03-07T14:26:09.981Z,31.23
2023-03-07T14:28:48.155Z,27.95
2023-03-07T14:31:25.311Z,28.77
2023-03-07T14:33:55.878Z,29.77
2023-03-07T14:36:26.180Z,26.83
2023-03-07T14:38:57.886Z,27.80
2023-03-07T14:41:45.632Z,35.22
2023-03-07T14:44:53.669Z,28.95
2023-03-07T14:47:39.013Z,29.08
2023-03-07T14:50:15.897Z,29.83
2023-03-07T14:52:45.204Z,27.80
2023-03-07T14:55:19.424Z,27.33
2023-03-07T14:57:52.742Z,26.67
2023-03-07T15:00:28.451Z,28.52
2023-03-07T15:02:58.781Z,27.98
2023-03-07T15:05:34.558Z,31.27
2023-03-07T15:08:03.154Z,28.67
2023-03-07T15:10:36.398Z,30.45
2023-03-07T15:13:13.825Z,27.20
2023-03-07T15:15:47.079Z,32.08
2023-03-07T15:18:22.341Z,25.98
2023-03-07T15:20:54.680Z,29.85
2023-03-07T15:23:24.794Z,30.85
2023-03-07T15:25:55.177Z,27.33
2023-03-07T15:28:28.339Z,28.17
2023-03-07T15:30:57.511Z,31.42
2023-03-07T15:33:27.641Z,26.52
2023-03-07T15:36:20.818Z,24.70
2023-03-07T15:38:51.249Z,31.60
2023-03-07T15:41:31.741Z,26.58
2023-03-07T15:44:27.140Z,26.73
2023-03-07T15:46:58.981Z,22.83
2023-03-07T15:49:32.920Z,24.75
2023-03-07T15:52:02.965Z,24.52
2023-03-07T15:54:36.459Z,26.25
2023-03-07T15:57:07.324Z,25.23
2023-03-07T15:59:39.229Z,23.88
2023-03-07T16:02:36.948Z,29.88
2023-03-07T16:05:07.382Z,22.67
2023-03-07T16:07:37.156Z,28.50
2023-03-07T16:10:06.266Z,26.00
2023-03-07T16:12:34.920Z,23.23
2023-03-07T16:15:04.415Z,27.17
2023-03-07T16:17:36.816Z,23.25
2023-03-07T16:20:06.334Z,22.17
2023-03-07T16:22:36.058Z,25.33
2023-03-07T16:25:05.780Z,24.92
2023-03-07T16:27:34.395Z,28.70
2023-03-07T16:30:03.008Z,24.42
2023-03-07T16:32:31.495Z,28.83
2023-03-07T16:34:59.871Z,24.88
2023-03-07T16:37:28.808Z,26.75
2023-03-07T16:39:58.507Z,26.27
2023-03-07T16:42:26.810Z,26.10
2023-03-07T16:44:55.167Z,21.20
2023-03-07T16:47:23.602Z,26.25
2023-03-07T16:49:52.171Z,27.10
2023-03-07T16:52:23.638Z,26.13
2023-03-07T16:54:51.838Z,23.65
2023-03-07T16:57:25.925Z,25.67
2023-03-07T16:59:54.502Z,23.77
2023-03-07T17:02:24.399Z,24.35
2023-03-07T17:04:52.724Z,21.00
2023-03-07T17:07:23.477Z,25.85
2023-03-07T17:09:52.078Z,27.63
2023-03-07T17:12:24.229Z,23.48
2023-03-07T17:14:53.615Z,25.73
2023-03-07T17:17:30.085Z,29.55
2023-03-07T17:19:58.501Z,23.38
2023-03-07T17:22:27.117Z,24.55
2023-03-07T17:24:55.489Z,26.48
2023-03-07T17:27:25.293Z,24.83
2023-03-07T17:29:55.212Z,25.98
2023-03-07T17:32:23.782Z,32.78
2023-03-07T17:34:52.155Z,27.85
2023-03-07T17:37:20.583Z,25.98
2023-03-07T17:39:48.849Z,27.65
2023-03-07T17:42:17.299Z,29.08
2023-03-07T17:44:46.966Z,27.55
2023-03-07T17:47:15.484Z,25.77
2023-03-07T17:49:45.756Z,22.02
2023-03-07T17:52:15.038Z,23.65
2023-03-07T17:54:45.845Z,23.70
2023-03-07T17:57:14.343Z,28.13
2023-03-07T17:59:43.117Z,27.63
2023-03-07T18:02:13.501Z,29.73
2023-03-07T18:04:41.812Z,32.30
2023-03-07T18:07:10.551Z,27.25
2023-03-07T18:09:39.314Z,32.97
2023-03-07T18:12:08.337Z,30.85
2023-03-07T18:14:36.844Z,32.40
2023-03-07T18:17:05.152Z,36.75
2023-03-07T18:19:35.394Z,35.80
2023-03-07T18:22:04.751Z,36.92
2023-03-07T18:24:33.630Z,46.72
2023-03-07T18:27:03.532Z,40.83
2023-03-07T18:29:31.913Z,36.47
2023-03-07T18:32:00.909Z,34.95
2023-03-07T18:34:29.497Z,28.83
2023-03-07T18:36:59.420Z,29.67
2023-03-07T18:39:27.739Z,30.92
2023-03-07T18:41:56.038Z,28.70
2023-03-07T18:44:24.392Z,33.55
2023-03-07T18:46:52.696Z,30.20
2023-03-07T18:49:20.996Z,28.02
2023-03-07T18:51:49.440Z,29.17
2023-03-07T18:54:19.089Z,29.65
2023-03-07T18:56:48.157Z,29.38
2023-03-07T18:59:19.277Z,27.33
2023-03-07T19:01:50.295Z,26.08
2023-03-07T19:04:19.511Z,28.88
2023-03-07T19:06:48.633Z,25.95
2023-03-07T19:09:20.305Z,27.95
2023-03-07T19:11:49.299Z,26.77
2023-03-07T19:14:17.868Z,25.60
2023-03-07T19:16:46.324Z,29.25
2023-03-07T19:19:14.805Z,26.85
2023-03-07T19:21:43.097Z,27.30
2023-03-07T19:24:13.266Z,26.60
2023-03-07T19:26:43.469Z,30.17
2023-03-07T19:29:13.152Z,24.50
2023-03-07T19:31:43.982Z,21.02
2023-03-07T19:34:12.489Z,26.00
2023-03-07T19:36:41.676Z,26.70
2023-03-07T19:39:15.051Z,22.85
2023-03-07T19:41:48.009Z,30.02
2023-03-07T19:44:17.083Z,27.85
2023-03-07T19:46:47.397Z,25.58
2023-03-07T19:49:16.475Z,27.70
2023-03-07T19:51:44.931Z,22.70
2023-03-07T19:54:15.044Z,24.10
2023-03-07T19:56:45.772Z,22.65
2023-03-07T19:59:14.543Z,24.52
2023-03-07T20:01:46.618Z,26.00
2023-03-07T20:04:16.855Z,27.67
2023-03-07T20:06:46.099Z,20.35
2023-03-07T20:09:15.169Z,23.95
2023-03-07T20:11:45.316Z,26.92
2023-03-07T20:14:14.367Z,24.80
2023-03-07T20:16:42.956Z,22.33
2023-03-07T20:19:11.627Z,22.48
2023-03-07T20:21:40.379Z,22.40
2023-03-07T20:24:09.537Z,22.65
2023-03-07T20:26:40.725Z,23.20
2023-03-07T20:29:11.529Z,21.10
2023-03-07T20:31:40.691Z,22.83
2023-03-07T20:34:09.832Z,26.15
2023-03-07T20:36:39.086Z,25.75
2023-03-07T20:39:09.791Z,23.40
2023-03-07T20:41:38.210Z,24.70
2023-03-07T20:44:08.020Z,23.17
2023-03-07T20:46:40.110Z,19.02
2023-03-07T20:49:09.094Z,17.02
2023-03-07T20:51:39.216Z,21.30
2023-03-07T20:54:09.879Z,16.95
2023-03-07T20:56:39.760Z,19.40
2023-03-07T20:59:09.426Z,20.38
2023-03-07T21:01:39.478Z,16.20
2023-03-07T21:04:11.489Z,17.92
2023-03-07T21:06:43.595Z,18.48
2023-03-07T21:09:16.075Z,17.95
2023-03-07T21:11:46.417Z,17.88
2023-03-07T21:14:15.785Z,16.95
2023-03-07T21:16:45.579Z,16.33
2023-03-07T21:19:14.127Z,14.57
2023-03-07T21:21:42.860Z,13.95
2023-03-07T21:24:14.193Z,12.45
2023-03-07T21:26:42.702Z,15.75
2023-03-07T21:29:11.239Z,14.68
2023-03-07T21:31:39.759Z,13.25
2023-03-07T21:34:13.420Z,14.50
2023-03-07T21:36:42.398Z,17.48
2023-03-07T21:39:11.986Z,17.75
2023-03-07T21:41:40.616Z,14.60
2023-03-07T21:44:09.171Z,20.95
2023-03-07T21:46:37.515Z,14.02
2023-03-07T21:49:05.980Z,14.75
2023-03-07T21:51:35.922Z,14.70
2023-03-07T21:54:04.362Z,14.50
2023-03-07T21:56:32.747Z,15.73
2023-03-07T21:59:05.973Z,17.40
2023-03-07T22:01:34.402Z,14.93
2023-03-07T22:04:02.927Z,14.73
2023-03-07T22:06:31.554Z,10.25
2023-03-07T22:09:01.688Z,9.30
2023-03-07T22:11:30.057Z,10.30
2023-03-07T22:13:59.350Z,7.85
2023-03-07T22:16:27.689Z,8.50
2023-03-07T22:19:01.905Z,11.23
2023-03-07T22:21:30.299Z,6.35
2023-03-07T22:24:01.474Z,7.35
2023-03-07T22:26:32.789Z,6.88
2023-03-07T22:29:01.212Z,8.73
2023-03-07T22:31:29.964Z,7.60
2023-03-07T22:34:03.008Z,5.53
2023-03-07T22:36:31.313Z,7.15
2023-03-07T22:38:59.664Z,7.22
2023-03-07T22:41:28.040Z,7.25
2023-03-07T22:43:57.849Z,8.52
2023-03-07T22:46:26.472Z,5.05
2023-03-07T22:48:55.633Z,9.82
2023-03-07T22:51:25.136Z,6.43
2023-03-07T22:53:53.800Z,7.63
2023-03-07T22:56:23.565Z,7.13
2023-03-07T22:58:52.151Z,5.30
2023-03-07T23:01:23.641Z,8.63
2023-03-07T23:03:55.190Z,6.38
2023-03-07T23:06:24.924Z,6.45
2023-03-07T23:08:54.688Z,10.07
2023-03-07T23:11:24.938Z,9.50
2023-03-07T23:13:54.134Z,7.40
2023-03-07T23:16:25.386Z,6.47
2023-03-07T23:18:55.478Z,6.50
2023-03-07T23:21:26.601Z,5.63
2023-03-07T23:23:55.819Z,8.52
2023-03-07T23:26:27.079Z,7.05
2023-03-07T23:28:56.035Z,6.03
2023-03-07T23:31:27.839Z,7.78
2023-03-07T23:33:57.355Z,3.55
2023-03-07T23:36:26.016Z,5.57
2023-03-07T23:38:54.578Z,3.95
2023-03-07T23:41:23.823Z,6.32
2023-03-07T23:43:52.795Z,4.70
2023-03-07T23:46:22.905Z,4.95
2023-03-07T23:48:52.892Z,3.45
2023-03-07T23:51:22.074Z,6.25
2023-03-07T23:53:52.753Z,4.72
2023-03-07T23:56:21.209Z,3.38
2023-03-07T23:58:51.150Z,4.22
